createdAt,value
2023-06-18T00:02:08.835Z,15.70
2023-06-18T00:07:12.479Z,15.90
2023-06-18T00:12:19.317Z,15.80
2023-06-18T00:17:24.558Z,15.40
2023-06-18T00:22:28.074Z,14.90
2023-06-18T00:27:31.594Z,14.20
2023-06-18T00:32:36.466Z,14.00
2023-06-18T00:37:40.467Z,14.00
2023-06-18T00:42:44.657Z,14.40
2023-06-18T00:47:51.340Z,14.70
2023-06-18T00:53:01.116Z,14.60
2023-06-18T00:58:04.714Z,14.60
2023-06-18T01:03:17.978Z,14.60
2023-06-18T01:08:24.297Z,11.70
2023-06-18T01:13:31.869Z,14.40
2023-06-18T01:18:42.793Z,14.30
2023-06-18T01:23:55.434Z,13.80
2023-06-18T01:29:01.710Z,13.70
2023-06-18T01:34:07.651Z,13.70
2023-06-18T01:39:19.129Z,13.60
2023-06-18T01:44:25.494Z,13.60
2023-06-18T01:49:31.139Z,13.50
2023-06-18T01:54:38.038Z,13.70
2023-06-18T01:59:42.814Z,13.70
2023-06-18T02:04:48.716Z,13.60
2023-06-18T02:09:51.983Z,13.50
2023-06-18T02:14:55.288Z,13.10
2023-06-18T02:20:00.434Z,12.70
2023-06-18T02:25:03.994Z,12.70
2023-06-18T02:30:08.664Z,12.90
2023-06-18T02:35:15.277Z,12.90
2023-06-18T02:40:18.877Z,12.80
2023-06-18T02:45:23.672Z,12.90
2023-06-18T02:50:30.023Z,12.90
2023-06-18T02:55:33.845Z,12.60
2023-06-18T03:00:37.278Z,12.70
2023-06-18T03:05:42.129Z,12.70
2023-06-18T03:10:45.935Z,12.90
2023-06-18T03:15:49.534Z,13.00
2023-06-18T03:20:57.017Z,13.20
2023-06-18T03:26:01.441Z,13.40
2023-06-18T03:31:07.636Z,13.00
2023-06-18T03:36:12.671Z,12.80
2023-06-18T03:41:16.820Z,12.40
2023-06-18T03:46:20.522Z,12.20
2023-06-18T03:51:26.590Z,12.20
2023-06-18T03:56:30.054Z,12.40
2023-06-18T04:01:34.813Z,12.60
2023-06-18T04:06:40.423Z,12.60
2023-06-18T04:11:44.517Z,12.90
2023-06-18T04:16:47.854Z,13.10
2023-06-18T04:21:52.523Z,13.30
2023-06-18T04:26:55.984Z,13.40
2023-06-18T04:31:59.900Z,13.60
2023-06-18T04:37:05.357Z,13.90
2023-06-18T04:42:09.222Z,14.00
2023-06-18T04:47:13.604Z,14.20
2023-06-18T04:52:18.580Z,14.30
2023-06-18T04:57:23.907Z,14.40
2023-06-18T05:02:27.786Z,14.60
2023-06-18T05:07:32.814Z,14.90
2023-06-18T05:12:36.900Z,15.30
2023-06-18T05:17:40.651Z,15.40
2023-06-18T05:22:49.869Z,15.60
2023-06-18T05:27:54.586Z,16.40
2023-06-18T05:32:58.743Z,16.80
2023-06-18T05:38:03.732Z,17.50
2023-06-18T05:43:07.572Z,18.10
2023-06-18T05:48:20.103Z,18.40
2023-06-18T05:53:34.101Z,19.60
2023-06-18T05:58:42.751Z,20.00
2023-06-18T06:03:54.619Z,19.90
2023-06-18T06:09:12.641Z,20.50
2023-06-18T06:14:18.496Z,17.70
2023-06-18T06:19:22.712Z,24.10
2023-06-18T06:24:48.054Z,21.60
2023-06-18T06:30:05.953Z,21.80
2023-06-18T06:35:12.226Z,21.70
2023-06-18T06:40:19.449Z,21.40
2023-06-18T06:45:23.058Z,22.30
2023-06-18T06:50:53.175Z,21.80
2023-06-18T06:56:04.717Z,21.80
2023-06-18T07:01:10.299Z,22.90
2023-06-18T07:06:14.554Z,22.90
2023-06-18T07:11:19.373Z,23.00
2023-06-18T07:16:22.761Z,22.90
2023-06-18T07:21:26.240Z,27.80
2023-06-18T07:26:31.062Z,23.90
2023-06-18T07:31:34.405Z,24.80
2023-06-18T07:36:38.138Z,24.60
2023-06-18T07:41:43.976Z,28.80
2023-06-18T07:46:47.516Z,23.60
2023-06-18T07:51:51.174Z,24.80
2023-06-18T07:56:55.888Z,25.70
2023-06-18T08:01:59.285Z,25.10
2023-06-18T08:07:02.685Z,26.30
2023-06-18T08:12:08.999Z,26.00
2023-06-18T08:17:17.093Z,25.60
2023-06-18T08:22:20.667Z,24.90
2023-06-18T08:27:25.411Z,26.60
2023-06-18T08:32:28.804Z,27.70
2023-06-18T08:37:32.237Z,28.00
2023-06-18T08:42:37.186Z,27.60
2023-06-18T08:47:44.467Z,25.90
2023-06-18T08:52:53.668Z,27.10
2023-06-18T08:58:07.628Z,26.40
2023-06-18T09:03:12.374Z,28.10
2023-06-18T09:08:16.934Z,29.30
2023-06-18T09:13:21.591Z,29.30
2023-06-18T09:18:26.480Z,25.70
2023-06-18T09:23:29.905Z,28.80
2023-06-18T09:28:34.669Z,28.20
2023-06-18T09:33:38.919Z,29.80
2023-06-18T09:38:44.656Z,31.90
2023-06-18T09:43:51.850Z,32.30
2023-06-18T09:48:55.241Z,32.80
2023-06-18T09:54:02.102Z,32.80
2023-06-18T09:59:06.976Z,32.00
2023-06-18T10:04:10.295Z,32.80
2023-06-18T10:09:14.053Z,33.00
2023-06-18T10:14:24.914Z,34.20
2023-06-18T10:19:31.463Z,34.00
2023-06-18T10:24:38.477Z,34.30
2023-06-18T10:29:43.741Z,34.10
2023-06-18T10:34:47.742Z,34.00
2023-06-18T10:39:51.561Z,34.60
2023-06-18T10:44:59.175Z,35.10
2023-06-18T10:50:14.168Z,35.50
2023-06-18T10:55:31.120Z,35.30
2023-06-18T11:00:38.611Z,35.10
2023-06-18T11:05:49.803Z,35.60
2023-06-18T11:11:03.892Z,34.90
2023-06-18T11:16:15.871Z,35.20
2023-06-18T11:21:20.946Z,35.10
2023-06-18T11:26:24.745Z,35.90
2023-06-18T11:31:33.712Z,35.10
2023-06-18T11:36:40.973Z,34.30
2023-06-18T11:41:44.362Z,35.20
2023-06-18T11:46:49.161Z,35.90
2023-06-18T11:51:52.911Z,36.40
2023-06-18T11:56:57.587Z,36.00
2023-06-18T12:02:13.445Z,36.30
2023-06-18T12:07:19.096Z,36.00
2023-06-18T12:12:33.032Z,36.60
2023-06-18T12:17:47.801Z,35.40
2023-06-18T12:22:51.766Z,36.20
2023-06-18T12:27:56.109Z,35.80
2023-06-18T12:33:05.832Z,34.70
2023-06-18T12:38:10.862Z,30.90
2023-06-18T12:43:15.008Z,31.30
2023-06-18T12:48:22.306Z,30.50
2023-06-18T12:53:27.449Z,31.60
2023-06-18T12:58:31.519Z,29.70
2023-06-18T13:03:36.542Z,30.80
2023-06-18T13:08:40.321Z,30.40
2023-06-18T13:13:43.810Z,31.00
2023-06-18T13:18:48.547Z,31.10
2023-06-18T13:23:51.880Z,30.60
2023-06-18T13:28:55.352Z,29.40
2023-06-18T13:34:01.095Z,29.00
2023-06-18T13:39:05.155Z,28.00
2023-06-18T13:44:09.058Z,29.10
2023-06-18T13:49:13.992Z,30.20
2023-06-18T13:54:17.348Z,30.40
2023-06-18T13:59:21.014Z,30.40
2023-06-18T14:04:26.453Z,30.20
2023-06-18T14:09:30.333Z,30.30
2023-06-18T14:14:34.637Z,30.40
2023-06-18T14:19:40.092Z,30.30
2023-06-18T14:24:44.799Z,29.70
2023-06-18T14:29:48.261Z,29.40
2023-06-18T14:34:53.118Z,29.40
2023-06-18T14:39:56.807Z,29.40
2023-06-18T14:45:00.287Z,29.70
2023-06-18T14:50:05.982Z,29.80
2023-06-18T14:55:12.394Z,29.80
2023-06-18T15:00:16.512Z,29.80
2023-06-18T15:05:21.854Z,30.00
2023-06-18T15:10:25.880Z,29.90
2023-06-18T15:15:29.892Z,29.90
2023-06-18T15:20:41.500Z,29.90
2023-06-18T15:25:45.122Z,29.80
2023-06-18T15:30:48.643Z,29.70
2023-06-18T15:35:53.526Z,29.80
2023-06-18T15:40:56.970Z,29.50
2023-06-18T15:46:00.913Z,29.60
2023-06-18T15:51:06.202Z,29.30
2023-06-18T15:56:10.563Z,29.60
2023-06-18T16:01:14.995Z,29.60
2023-06-18T16:06:20.983Z,29.50
2023-06-18T16:11:24.590Z,29.30
2023-06-18T16:16:28.687Z,28.90
2023-06-18T16:21:34.788Z,28.80
2023-06-18T16:26:39.000Z,28.80
2023-06-18T16:31:42.285Z,28.80
2023-06-18T16:36:47.542Z,28.40
2023-06-18T16:41:50.897Z,28.30
2023-06-18T16:46:54.572Z,28.40
2023-06-18T16:51:59.858Z,28.50
2023-06-18T16:57:03.230Z,28.30
2023-06-18T17:02:06.632Z,28.30
2023-06-18T17:07:11.145Z,28.10
2023-06-18T17:12:14.480Z,28.10
2023-06-18T17:17:17.887Z,27.90
2023-06-18T17:22:22.972Z,27.70
2023-06-18T17:27:26.582Z,27.70
2023-06-18T17:32:30.035Z,27.70
2023-06-18T17:37:34.779Z,27.60
2023-06-18T17:42:39.211Z,27.50
2023-06-18T17:47:42.708Z,27.40
2023-06-18T17:52:48.107Z,27.20
2023-06-18T17:57:51.436Z,27.00
2023-06-18T18:02:55.301Z,26.90
2023-06-18T18:08:00.064Z,26.80
2023-06-18T18:13:03.823Z,26.60
2023-06-18T18:18:07.342Z,26.40
2023-06-18T18:23:12.492Z,26.00
2023-06-18T18:28:17.388Z,25.70
2023-06-18T18:33:20.878Z,25.60
2023-06-18T18:38:26.437Z,25.40
2023-06-18T18:43:31.731Z,25.00
2023-06-18T18:48:35.905Z,24.80
2023-06-18T18:53:42.293Z,24.60
2023-06-18T18:58:46.051Z,24.30
2023-06-18T19:03:50.310Z,24.30
2023-06-18T19:08:55.244Z,24.10
2023-06-18T19:14:00.005Z,24.00
2023-06-18T19:19:03.295Z,23.80
2023-06-18T19:24:08.389Z,23.60
2023-06-18T19:29:12.908Z,23.50
2023-06-18T19:34:16.754Z,23.30
2023-06-18T19:39:21.834Z,23.20
2023-06-18T19:44:25.565Z,23.20
2023-06-18T19:49:29.602Z,23.00
2023-06-18T19:54:35.618Z,23.10
2023-06-18T19:59:39.842Z,23.10
2023-06-18T20:04:43.199Z,23.00
2023-06-18T20:09:47.885Z,22.90
2023-06-18T20:14:51.631Z,22.90
2023-06-18T20:19:55.255Z,22.90
2023-06-18T20:25:00.641Z,22.80
2023-06-18T20:30:04.101Z,22.70
2023-06-18T20:35:07.765Z,22.60
2023-06-18T20:40:13.161Z,22.50
2023-06-18T20:45:16.942Z,22.20
2023-06-18T20:50:20.598Z,21.90
2023-06-18T20:55:25.343Z,21.50
2023-06-18T21:00:28.653Z,21.20
2023-06-18T21:05:32.011Z,20.90
2023-06-18T21:10:36.674Z,20.60
2023-06-18T21:15:40.371Z,20.30
2023-06-18T21:20:43.954Z,20.20
2023-06-18T21:25:48.618Z,20.10
2023-06-18T21:30:51.945Z,20.20
2023-06-18T21:35:55.276Z,20.10
2023-06-18T21:41:00.206Z,20.20
2023-06-18T21:46:03.608Z,20.00
2023-06-18T21:51:07.151Z,19.60
2023-06-18T21:56:11.874Z,19.50
2023-06-18T22:01:15.415Z,19.50
2023-06-18T22:06:18.673Z,19.50
2023-06-18T22:11:24.313Z,19.60
2023-06-18T22:16:28.705Z,19.50
2023-06-18T22:21:32.202Z,19.40
2023-06-18T22:26:37.184Z,19.00
2023-06-18T22:31:40.511Z,19.10
2023-06-18T22:36:44.418Z,19.20
2023-06-18T22:41:49.130Z,19.30
2023-06-18T22:46:52.690Z,19.10
2023-06-18T22:51:57.522Z,18.90
2023-06-18T22:57:02.238Z,18.60
2023-06-18T23:02:06.155Z,18.40
2023-06-18T23:07:09.656Z,18.00
2023-06-18T23:12:14.535Z,18.10
2023-06-18T23:17:19.630Z,18.30
2023-06-18T23:22:28.551Z,18.50
2023-06-18T23:27:33.304Z,18.30
2023-06-18T23:32:37.576Z,18.00
2023-06-18T23:37:40.986Z,18.10
2023-06-18T23:42:45.635Z,18.20
2023-06-18T23:47:49.094Z,18.20
2023-06-18T23:52:52.510Z,18.20
2023-06-18T23:57:57.227Z,18.30
